This is the latest recevied weather packets stored in our database for station/object K7SKM. If no packets are shown the sender has not sent any weather packets the latest 10 day(s).
| Time | Temp. | Humidity | Pressure | Rain* | Wind** | Luminosity | Snow |
|---|---|---|---|---|---|---|---|
| 1777658224 | 20° C | 49% | 1020.6 hPa | 0 mm | - | 276 W/m² | - |
| 1777657921 | 20° C | 51% | 1020.8 hPa | 0 mm | - | 299 W/m² | - |
| 1777657617 | 19.44° C | 51% | 1021.1 hPa | 0 mm | - | 305 W/m² | - |
| 1777657315 | 19.44° C | 50% | 1020.9 hPa | 0 mm | - | 305 W/m² | - |
| 1777657012 | 19.44° C | 52% | 1021 hPa | 0 mm | - | 276 W/m² | - |
| 1777656709 | 19.44° C | 53% | 1020.9 hPa | 0 mm | - | 277 W/m² | - |
| 1777656405 | 18.89° C | 55% | 1021.1 hPa | 0 mm | - | 267 W/m² | - |
| 1777656101 | 18.89° C | 56% | 1021.2 hPa | 0 mm | - | 269 W/m² | - |
| 1777655797 | 18.89° C | 57% | 1021 hPa | 0 mm | - | 269 W/m² | - |
| 1777655494 | 18.33° C | 58% | 1021.1 hPa | 0 mm | - | 255 W/m² | - |
| 1777655191 | 17.78° C | 58% | 1021.3 hPa | 0 mm | - | 173 W/m² | - |
| 1777654887 | 18.33° C | 57% | 1021.3 hPa | 0 mm | - | 193 W/m² | - |
| 1777654585 | 19.44° C | 57% | 1021.3 hPa | 0 mm | - | 227 W/m² | - |
| 1777654282 | 18.89° C | 58% | 1021.4 hPa | 0 mm | - | 247 W/m² | - |
| 1777653981 | 18.33° C | 58% | 1021.5 hPa | 0 mm | - | 231 W/m² | - |
| 1777653677 | 18.33° C | 58% | 1021.6 hPa | 0 mm | - | 204 W/m² | - |
| 1777653373 | 18.89° C | 58% | 1021.4 hPa | 0 mm | - | 244 W/m² | - |
| 1777653070 | 18.89° C | 59% | 1021.7 hPa | 0 mm | - | 252 W/m² | - |
| 1777652766 | 17.78° C | 61% | 1021.6 hPa | 0 mm | - | 239 W/m² | - |
| 1777652463 | 18.89° C | 58% | 1021.8 hPa | 0 mm | - | 187 W/m² | - |
| 1777652161 | 17.78° C | 60% | 1021.8 hPa | 0 mm | - | 201 W/m² | - |
| 1777651857 | 16.67° C | 63% | 1021.8 hPa | 0 mm | - | 184 W/m² | - |
| 1777651554 | 16.67° C | 64% | 1022.1 hPa | 0 mm | - | 190 W/m² | - |
| 1777651251 | 16.11° C | 66% | 1022 hPa | 0 mm | - | 196 W/m² | - |
| 1777650947 | 15.56° C | 68% | 1022.1 hPa | 0 mm | - | 181 W/m² | - |
* Rain latest hour (hover to see other rain measurements)
** Current wind speed in m/s (hover to see current wind gust speed)